KGYB

Giddings-Lee County Airport

Giddings, Texas, USA
METAR KGYB 250035Z AUTO 14006G17KT 10SM SCT049 30/21 A2997 RMK AO2 T02970209
Observed Flight Rules
May-25 @ 00:35 UTC (20 minutes ago) Visual Flight Rules
Wind Visibility Clouds
140° at 6 knots
 Gusting to 17 knots
10 miles
  • Scattered at 4,900' AGL
Temperatures Readings
Current 30°C / 86°F
Dewpoint 21°C / 70°F
Humidity 59%
Altimeter 29.97" Hg
Pressure 1015 hPa
Elevation 148
METAR KGYB 250035Z AUTO 14006G17KT 10SM SCT049 30/21 A2997 RMK AO2 T02970209
Observed Flight Rules
May-25 @ 00:35 UTC
(20 minutes ago)
VFR
Wind Visibility
140° at 6 knots
 Gusting to 17 knots
10 miles
Clouds
  • Scattered at 4,900' AGL
Temperature Dewpoint
30°C / 86°F 21°C / 70°F
Humidity Altimeter Pressure
59% 29.97" Hg 1015 hPa